Terminal Aerodrome Forecast
Issued by NWS

Home | Current Version | Previous Version | Text Only | Print | Product List | Glossary On
Versions: 1 2 3 4 5 6 7 8 9 10 11 12 13 14 15 16 17 18 19 20 21 22 23 24 25 26 27 28
325
FTUS43 KDLH 281415 AAC
TAFHYR
TAF AMD
KHYR 281415Z 2814/0112 VRB03KT 5SM -SNRA BR BKN035 OVC045
      TEMPO 2814/2816 3SM -SN BR
     FM281600 06003KT 6SM -DZ BR BKN015 OVC030
      TEMPO 2817/2821 5SM -SHRA BR SCT006 OVC012
     FM282200 03008KT 6SM -RA BR SCT006 OVC012
     FM010200 03008KT 6SM -SN BR OVC013=

USA.gov is the U.S. government's official web portal to all federal, state and local government web resources and services.